createdAt,value
2022-08-26T00:01:58.581Z,21.94
2022-08-26T00:05:04.034Z,21.95
2022-08-26T00:08:08.398Z,21.92
2022-08-26T00:11:15.795Z,21.89
2022-08-26T00:14:31.171Z,21.79
2022-08-26T00:17:34.962Z,21.71
2022-08-26T00:20:38.657Z,21.65
2022-08-26T00:23:45.273Z,21.61
2022-08-26T00:26:49.569Z,21.59
2022-08-26T00:29:52.313Z,21.55
2022-08-26T00:32:57.510Z,21.52
2022-08-26T00:36:01.663Z,21.51
2022-08-26T00:39:07.154Z,21.48
2022-08-26T00:42:10.134Z,21.44
2022-08-26T00:45:14.175Z,21.38
2022-08-26T00:48:22.474Z,21.37
2022-08-26T00:51:30.003Z,21.33
2022-08-26T00:54:36.842Z,21.26
2022-08-26T00:57:39.824Z,21.30
2022-08-26T01:00:43.203Z,21.28
2022-08-26T01:03:48.408Z,21.37
2022-08-26T01:06:54.102Z,21.32
2022-08-26T01:09:57.435Z,21.25
2022-08-26T01:13:10.183Z,21.22
2022-08-26T01:16:16.047Z,21.21
2022-08-26T01:19:29.527Z,21.19
2022-08-26T01:22:52.454Z,21.21
2022-08-26T01:26:00.666Z,21.25
2022-08-26T01:29:06.995Z,21.36
2022-08-26T01:32:14.521Z,21.30
2022-08-26T01:35:17.424Z,21.21
2022-08-26T01:38:21.157Z,21.16
2022-08-26T01:41:27.156Z,21.19
2022-08-26T01:44:36.427Z,21.23
2022-08-26T01:47:39.288Z,21.26
2022-08-26T01:50:43.817Z,21.27
2022-08-26T01:53:46.907Z,21.13
2022-08-26T01:56:51.539Z,21.08
2022-08-26T01:59:58.412Z,21.02
2022-08-26T02:03:17.079Z,20.96
2022-08-26T02:06:20.156Z,20.89
2022-08-26T02:09:24.854Z,20.81
2022-08-26T02:12:28.311Z,20.81
2022-08-26T02:15:31.064Z,20.94
2022-08-26T02:18:36.727Z,20.86
2022-08-26T02:21:41.035Z,20.79
2022-08-26T02:24:51.264Z,20.76
2022-08-26T02:27:56.714Z,20.69
2022-08-26T02:30:59.576Z,20.64
2022-08-26T02:34:12.594Z,20.56
2022-08-26T02:37:15.425Z,20.53
2022-08-26T02:40:26.647Z,20.44
2022-08-26T02:43:31.477Z,20.38
2022-08-26T02:46:35.638Z,20.33
2022-08-26T02:49:42.728Z,20.27
2022-08-26T02:52:48.363Z,20.22
2022-08-26T02:55:51.254Z,20.20
2022-08-26T02:58:53.891Z,20.20
2022-08-26T03:01:56.789Z,20.24
2022-08-26T03:05:02.225Z,20.24
2022-08-26T03:08:05.336Z,20.21
2022-08-26T03:11:08.626Z,20.16
2022-08-26T03:14:14.072Z,20.11
2022-08-26T03:17:16.592Z,20.09
2022-08-26T03:20:19.511Z,20.05
2022-08-26T03:23:21.976Z,20.03
2022-08-26T03:26:25.767Z,20.01
2022-08-26T03:29:49.425Z,20.09
2022-08-26T03:32:53.234Z,20.10
2022-08-26T03:35:55.709Z,20.01
2022-08-26T03:38:59.594Z,19.97
2022-08-26T03:42:02.255Z,19.94
2022-08-26T03:45:07.602Z,19.91
2022-08-26T03:48:11.320Z,19.87
2022-08-26T03:51:18.186Z,19.86
2022-08-26T03:54:21.016Z,19.85
2022-08-26T03:57:23.896Z,19.83
2022-08-26T04:00:26.564Z,19.79
2022-08-26T04:03:48.088Z,19.80
2022-08-26T04:06:56.730Z,19.80
2022-08-26T04:09:59.715Z,19.82
2022-08-26T04:13:02.469Z,19.81
2022-08-26T04:16:05.818Z,19.83
2022-08-26T04:19:10.217Z,19.85
2022-08-26T04:22:13.249Z,19.89
2022-08-26T04:25:15.777Z,19.91
2022-08-26T04:28:19.073Z,19.94
2022-08-26T04:31:22.120Z,20.01
2022-08-26T04:34:28.803Z,20.02
2022-08-26T04:37:32.047Z,20.06
2022-08-26T04:40:35.650Z,20.09
2022-08-26T04:43:38.891Z,20.18
2022-08-26T04:46:43.772Z,20.24
2022-08-26T04:49:46.691Z,20.33
2022-08-26T04:52:49.967Z,20.42
2022-08-26T04:55:55.276Z,20.44
2022-08-26T04:58:58.584Z,20.51
2022-08-26T05:02:03.731Z,20.77
2022-08-26T05:05:08.983Z,20.93
2022-08-26T05:08:13.616Z,20.95
2022-08-26T05:11:16.380Z,21.05
2022-08-26T05:14:19.577Z,21.14
2022-08-26T05:17:22.633Z,21.28
2022-08-26T05:20:26.185Z,21.48
2022-08-26T05:23:31.444Z,21.56
2022-08-26T05:26:33.979Z,21.74
2022-08-26T05:29:36.687Z,21.88
2022-08-26T05:32:39.557Z,22.03
2022-08-26T05:35:43.821Z,22.14
2022-08-26T05:38:46.926Z,22.22
2022-08-26T05:41:50.110Z,22.38
2022-08-26T05:44:56.060Z,22.49
2022-08-26T05:47:59.095Z,22.52
2022-08-26T05:51:05.449Z,22.63
2022-08-26T05:54:08.265Z,22.67
2022-08-26T05:57:13.869Z,22.84
2022-08-26T06:00:16.813Z,23.02
2022-08-26T06:03:19.639Z,23.12
2022-08-26T06:06:27.921Z,23.24
2022-08-26T06:09:32.126Z,23.33
2022-08-26T06:12:35.230Z,23.42
2022-08-26T06:15:46.864Z,23.53
2022-08-26T06:18:50.971Z,23.68
2022-08-26T06:21:55.062Z,23.81
2022-08-26T06:25:15.919Z,24.09
2022-08-26T06:28:18.777Z,24.23
2022-08-26T06:31:23.035Z,24.52
2022-08-26T06:34:29.810Z,24.77
2022-08-26T06:37:33.116Z,24.92
2022-08-26T06:40:45.884Z,25.10
2022-08-26T06:43:49.887Z,25.31
2022-08-26T06:46:53.524Z,25.52
2022-08-26T06:49:56.395Z,25.57
2022-08-26T06:52:59.214Z,25.73
2022-08-26T06:56:06.439Z,25.83
2022-08-26T06:59:10.558Z,25.89
2022-08-26T07:02:13.593Z,26.07
2022-08-26T07:05:16.939Z,26.24
2022-08-26T07:08:19.553Z,26.39
2022-08-26T07:11:22.754Z,26.47
2022-08-26T07:14:26.863Z,26.59
2022-08-26T07:17:29.782Z,26.64
2022-08-26T07:20:32.488Z,26.73
2022-08-26T07:23:35.571Z,26.80
2022-08-26T07:26:42.961Z,26.83
2022-08-26T07:29:46.488Z,26.94
2022-08-26T07:32:49.695Z,27.06
2022-08-26T07:35:52.544Z,27.10
2022-08-26T07:38:55.650Z,27.13
2022-08-26T07:42:01.022Z,27.30
2022-08-26T07:45:04.316Z,27.38
2022-08-26T07:48:07.134Z,27.39
2022-08-26T07:51:09.904Z,27.52
2022-08-26T07:54:13.418Z,27.59
2022-08-26T07:57:15.942Z,27.65
2022-08-26T08:00:22.021Z,27.78
2022-08-26T08:03:24.807Z,27.95
2022-08-26T08:06:28.253Z,27.91
2022-08-26T08:09:31.189Z,27.99
2022-08-26T08:12:33.853Z,28.05
2022-08-26T08:15:37.674Z,28.33
2022-08-26T08:18:41.332Z,28.54
2022-08-26T08:21:44.948Z,28.79
2022-08-26T08:24:49.984Z,28.71
2022-08-26T08:27:56.014Z,28.83
2022-08-26T08:31:00.073Z,28.80
2022-08-26T08:34:03.781Z,28.90
2022-08-26T08:37:08.742Z,28.94
2022-08-26T08:40:18.374Z,29.18
2022-08-26T08:43:39.845Z,29.38
2022-08-26T08:46:44.414Z,29.50
2022-08-26T08:49:47.240Z,29.44
2022-08-26T08:53:10.484Z,29.41
2022-08-26T08:56:38.971Z,29.67
2022-08-26T08:59:53.470Z,29.75
2022-08-26T09:03:08.917Z,29.40
2022-08-26T09:06:17.034Z,29.36
2022-08-26T09:09:30.294Z,29.57
2022-08-26T09:12:34.174Z,29.85
2022-08-26T09:16:02.696Z,30.08
2022-08-26T09:19:19.759Z,30.20
2022-08-26T09:22:31.687Z,30.38
2022-08-26T09:25:45.610Z,30.49
2022-08-26T09:29:01.739Z,30.30
2022-08-26T09:32:24.423Z,30.62
2022-08-26T09:35:39.874Z,30.75
2022-08-26T09:38:43.930Z,30.89
2022-08-26T09:42:03.154Z,30.90
2022-08-26T09:45:10.485Z,30.90
2022-08-26T09:48:25.488Z,30.92
2022-08-26T09:51:32.302Z,31.06
2022-08-26T09:54:35.965Z,31.09
2022-08-26T09:57:54.723Z,31.03
2022-08-26T10:01:01.429Z,31.03
2022-08-26T10:04:07.351Z,31.20
2022-08-26T10:07:10.048Z,31.32
2022-08-26T10:10:24.094Z,31.38
2022-08-26T10:13:43.353Z,31.59
2022-08-26T10:16:59.643Z,31.66
2022-08-26T10:20:23.315Z,31.66
2022-08-26T10:23:30.939Z,31.89
2022-08-26T10:26:56.373Z,31.92
2022-08-26T10:30:06.965Z,32.01
2022-08-26T10:33:13.039Z,32.10
2022-08-26T10:36:47.205Z,32.15
2022-08-26T10:40:12.690Z,32.33
2022-08-26T10:43:21.289Z,32.37
2022-08-26T10:46:29.574Z,32.49
2022-08-26T10:49:33.044Z,32.63
2022-08-26T10:52:50.250Z,32.52
2022-08-26T10:56:31.022Z,32.70
2022-08-26T11:00:00.823Z,32.92
2022-08-26T11:03:26.056Z,32.79
2022-08-26T11:06:30.223Z,32.92
2022-08-26T11:09:46.844Z,32.90
2022-08-26T11:12:53.344Z,32.31
2022-08-26T11:15:58.643Z,32.63
2022-08-26T11:19:04.860Z,32.60
2022-08-26T11:22:09.404Z,32.54
2022-08-26T11:25:14.747Z,32.45
2022-08-26T11:28:39.709Z,32.64
2022-08-26T11:31:54.870Z,32.87
2022-08-26T11:35:00.397Z,32.88
2022-08-26T11:38:15.126Z,32.95
2022-08-26T11:41:21.292Z,32.88
2022-08-26T11:44:29.168Z,32.72
2022-08-26T11:47:32.469Z,32.97
2022-08-26T11:50:35.897Z,32.96
2022-08-26T11:53:42.500Z,33.10
2022-08-26T11:56:48.585Z,33.25
2022-08-26T11:59:51.867Z,33.31
2022-08-26T12:02:55.683Z,33.34
2022-08-26T12:05:59.727Z,33.25
2022-08-26T12:09:08.401Z,33.23
2022-08-26T12:12:14.776Z,33.26
2022-08-26T12:15:21.943Z,33.30
2022-08-26T12:18:31.116Z,33.18
2022-08-26T12:21:35.104Z,33.26
2022-08-26T12:24:46.704Z,33.29
2022-08-26T12:28:03.201Z,33.44
2022-08-26T12:31:06.891Z,33.30
2022-08-26T12:34:17.603Z,33.20
2022-08-26T12:37:21.409Z,33.14
2022-08-26T12:40:34.260Z,33.06
2022-08-26T12:43:45.204Z,33.10
2022-08-26T12:46:49.866Z,33.10
2022-08-26T12:50:45.026Z,33.26
2022-08-26T12:53:48.126Z,33.41
2022-08-26T12:56:51.982Z,33.51
2022-08-26T13:00:14.945Z,33.55
2022-08-26T13:03:45.893Z,33.53
2022-08-26T13:06:48.371Z,33.50
2022-08-26T13:09:56.869Z,33.59
2022-08-26T13:12:59.384Z,33.50
2022-08-26T13:16:03.108Z,33.50
2022-08-26T13:19:10.177Z,33.68
2022-08-26T13:22:13.908Z,33.80
2022-08-26T13:25:19.632Z,33.65
2022-08-26T13:28:42.238Z,33.80
2022-08-26T13:31:45.988Z,33.80
2022-08-26T13:34:51.393Z,33.91
2022-08-26T13:37:54.100Z,33.88
2022-08-26T13:40:59.703Z,33.92
2022-08-26T13:44:02.811Z,34.03
2022-08-26T13:47:06.519Z,33.99
2022-08-26T13:50:09.139Z,33.99
2022-08-26T13:53:13.231Z,34.23
2022-08-26T13:56:15.748Z,34.31
2022-08-26T13:59:19.405Z,34.37
2022-08-26T14:02:22.550Z,34.27
2022-08-26T14:05:26.353Z,34.34
2022-08-26T14:08:29.676Z,34.44
2022-08-26T14:11:50.637Z,34.20
2022-08-26T14:14:55.160Z,34.37
2022-08-26T14:17:58.061Z,34.23
2022-08-26T14:21:01.057Z,34.39
2022-08-26T14:24:06.123Z,34.40
2022-08-26T14:27:08.660Z,34.54
2022-08-26T14:30:11.949Z,34.67
2022-08-26T14:33:15.199Z,34.80
2022-08-26T14:36:31.859Z,35.01
2022-08-26T14:39:34.980Z,35.06
2022-08-26T14:42:37.811Z,35.16
2022-08-26T14:45:43.690Z,35.24
2022-08-26T14:48:46.804Z,35.31
2022-08-26T14:51:49.559Z,35.47
2022-08-26T14:54:55.028Z,35.88
2022-08-26T14:57:58.710Z,36.08
2022-08-26T15:01:04.373Z,36.45
2022-08-26T15:04:07.276Z,37.18
2022-08-26T15:07:12.682Z,37.78
2022-08-26T15:10:17.971Z,38.44
2022-08-26T15:13:20.708Z,38.69
2022-08-26T15:16:24.052Z,39.22
2022-08-26T15:19:27.738Z,39.96
2022-08-26T15:22:30.338Z,40.94
2022-08-26T15:25:33.435Z,41.53
2022-08-26T15:28:37.136Z,42.16
2022-08-26T15:31:40.071Z,42.53
2022-08-26T15:34:42.837Z,41.75
2022-08-26T15:37:45.718Z,41.45
2022-08-26T15:40:48.343Z,41.14
2022-08-26T15:43:51.699Z,40.70
2022-08-26T15:46:58.370Z,40.92
2022-08-26T15:50:01.530Z,40.49
2022-08-26T15:53:05.201Z,40.44
2022-08-26T15:56:08.304Z,40.77
2022-08-26T15:59:11.992Z,41.58
2022-08-26T16:02:15.018Z,41.56
2022-08-26T16:05:18.335Z,41.23
2022-08-26T16:08:22.319Z,40.89
2022-08-26T16:11:26.372Z,40.77
2022-08-26T16:14:29.248Z,40.02
2022-08-26T16:17:32.149Z,38.81
2022-08-26T16:20:37.254Z,38.05
2022-08-26T16:23:40.256Z,37.55
2022-08-26T16:26:45.866Z,37.31
2022-08-26T16:29:48.734Z,37.01
2022-08-26T16:32:51.238Z,36.63
2022-08-26T16:35:54.308Z,36.24
2022-08-26T16:38:57.003Z,34.85
2022-08-26T16:41:59.835Z,33.63
2022-08-26T16:45:02.818Z,33.16
2022-08-26T16:48:06.437Z,32.70
2022-08-26T16:51:16.222Z,32.31
2022-08-26T16:54:19.019Z,31.91
2022-08-26T16:57:21.641Z,31.79
2022-08-26T17:00:28.138Z,31.59
2022-08-26T17:03:30.628Z,31.37
2022-08-26T17:06:34.070Z,31.21
2022-08-26T17:09:37.485Z,31.13
2022-08-26T17:12:44.419Z,30.90
2022-08-26T17:15:54.037Z,30.66
2022-08-26T17:19:00.235Z,30.58
2022-08-26T17:22:02.769Z,30.41
2022-08-26T17:25:15.556Z,30.24
2022-08-26T17:28:18.056Z,30.07
2022-08-26T17:31:22.101Z,29.86
2022-08-26T17:34:24.810Z,29.66
2022-08-26T17:37:28.236Z,29.40
2022-08-26T17:40:31.765Z,29.24
2022-08-26T17:43:34.875Z,28.93
2022-08-26T17:46:38.481Z,28.64
2022-08-26T17:49:41.468Z,28.44
2022-08-26T17:52:45.825Z,28.26
2022-08-26T17:55:49.520Z,28.09
2022-08-26T17:58:54.368Z,27.89
2022-08-26T18:01:58.944Z,27.72
2022-08-26T18:05:01.784Z,27.56
2022-08-26T18:08:04.355Z,27.43
2022-08-26T18:11:12.146Z,27.32
2022-08-26T18:14:15.165Z,27.16
2022-08-26T18:17:19.441Z,27.02
2022-08-26T18:20:22.264Z,26.90
2022-08-26T18:23:25.619Z,26.79
2022-08-26T18:26:32.193Z,26.66
2022-08-26T18:29:35.102Z,26.57
2022-08-26T18:32:37.648Z,26.48
2022-08-26T18:35:42.321Z,26.38
2022-08-26T18:38:46.398Z,26.32
2022-08-26T18:41:53.103Z,26.22
2022-08-26T18:44:55.744Z,26.12
2022-08-26T18:47:58.712Z,26.00
2022-08-26T18:51:01.257Z,25.95
2022-08-26T18:54:06.267Z,25.84
2022-08-26T18:57:09.410Z,25.83
2022-08-26T19:00:13.793Z,25.86
2022-08-26T19:03:18.758Z,25.78
2022-08-26T19:06:23.577Z,25.72
2022-08-26T19:09:27.288Z,25.71
2022-08-26T19:12:30.169Z,25.59
2022-08-26T19:15:40.706Z,25.54
2022-08-26T19:18:44.057Z,25.47
2022-08-26T19:21:47.162Z,25.39
2022-08-26T19:24:50.077Z,25.33
2022-08-26T19:27:52.589Z,25.25
2022-08-26T19:30:55.541Z,25.18
2022-08-26T19:33:59.009Z,25.12
2022-08-26T19:37:02.531Z,25.17
2022-08-26T19:40:06.320Z,25.12
2022-08-26T19:43:10.380Z,25.02
2022-08-26T19:46:18.178Z,24.95
2022-08-26T19:49:21.180Z,24.92
2022-08-26T19:52:30.034Z,24.87
2022-08-26T19:55:33.635Z,24.87
2022-08-26T19:58:36.351Z,24.91
2022-08-26T20:01:39.166Z,25.00
2022-08-26T20:04:42.830Z,24.92
2022-08-26T20:07:45.326Z,24.95
2022-08-26T20:10:49.789Z,24.88
2022-08-26T20:13:52.369Z,24.83
2022-08-26T20:16:55.652Z,24.80
2022-08-26T20:20:32.647Z,24.75
2022-08-26T20:23:36.961Z,24.75
2022-08-26T20:26:41.772Z,25.00
2022-08-26T20:29:44.554Z,24.88
2022-08-26T20:32:48.023Z,24.76
2022-08-26T20:35:51.351Z,24.75
2022-08-26T20:38:55.292Z,24.65
2022-08-26T20:41:58.303Z,24.51
2022-08-26T20:45:01.309Z,24.37
2022-08-26T20:48:04.380Z,24.23
2022-08-26T20:51:06.969Z,24.13
2022-08-26T20:54:12.271Z,24.03
2022-08-26T20:57:14.850Z,23.93
2022-08-26T21:00:22.562Z,23.82
2022-08-26T21:03:29.169Z,23.78
2022-08-26T21:06:33.868Z,23.72
2022-08-26T21:09:36.553Z,23.69
2022-08-26T21:12:41.128Z,23.63
2022-08-26T21:15:44.056Z,23.61
2022-08-26T21:18:47.520Z,23.65
2022-08-26T21:21:50.463Z,23.60
2022-08-26T21:24:53.972Z,23.56
2022-08-26T21:27:56.845Z,23.52
2022-08-26T21:31:03.629Z,23.48
2022-08-26T21:34:06.164Z,23.46
2022-08-26T21:37:13.342Z,23.44
2022-08-26T21:40:19.456Z,23.41
2022-08-26T21:43:33.615Z,23.41
2022-08-26T21:46:38.215Z,23.41
2022-08-26T21:49:40.947Z,23.39
2022-08-26T21:52:43.860Z,23.37
2022-08-26T21:55:49.687Z,23.41
2022-08-26T21:58:54.938Z,23.31
2022-08-26T22:01:58.677Z,23.19
2022-08-26T22:05:01.599Z,23.15
2022-08-26T22:08:04.684Z,23.08
2022-08-26T22:11:07.528Z,23.01
2022-08-26T22:14:10.563Z,22.95
2022-08-26T22:17:13.412Z,22.87
2022-08-26T22:20:16.742Z,22.85
2022-08-26T22:23:20.831Z,22.77
2022-08-26T22:26:26.015Z,22.68
2022-08-26T22:29:28.860Z,22.68
2022-08-26T22:32:31.343Z,22.78
2022-08-26T22:35:38.818Z,22.85
2022-08-26T22:38:41.388Z,22.76
2022-08-26T22:41:45.272Z,22.59
2022-08-26T22:44:47.894Z,22.51
2022-08-26T22:47:50.681Z,22.37
2022-08-26T22:50:59.597Z,22.28
2022-08-26T22:54:03.170Z,22.22
2022-08-26T22:57:05.663Z,22.16
2022-08-26T23:00:13.493Z,22.09
2022-08-26T23:03:17.201Z,22.02
2022-08-26T23:06:20.049Z,21.96
2022-08-26T23:09:22.613Z,21.91
2022-08-26T23:12:25.472Z,21.87
2022-08-26T23:15:28.090Z,21.84
2022-08-26T23:18:31.001Z,21.82
2022-08-26T23:21:33.773Z,21.77
2022-08-26T23:24:37.023Z,21.78
2022-08-26T23:27:42.716Z,21.75
2022-08-26T23:30:45.417Z,21.67
2022-08-26T23:34:06.375Z,21.62
2022-08-26T23:37:09.383Z,21.57
2022-08-26T23:40:15.874Z,21.56
2022-08-26T23:43:18.637Z,21.55
2022-08-26T23:46:21.555Z,21.51
2022-08-26T23:49:24.547Z,21.46
2022-08-26T23:52:46.167Z,21.42
2022-08-26T23:55:51.999Z,21.37
2022-08-26T23:58:55.334Z,21.26
